sensor_id;sensor_type;location;lat;lon;timestamp;temperature;humidity
18260;DHT22;9256;52.236;5.712;2024-03-22T00:02:13;10.50;99.90
18260;DHT22;9256;52.236;5.712;2024-03-22T00:04:40;10.50;99.90
18260;DHT22;9256;52.236;5.712;2024-03-22T00:07:06;10.50;99.90
18260;DHT22;9256;52.236;5.712;2024-03-22T00:09:33;10.50;99.90
18260;DHT22;9256;52.236;5.712;2024-03-22T00:12:00;10.50;99.90
18260;DHT22;9256;52.236;5.712;2024-03-22T00:14:27;10.50;99.90
18260;DHT22;9256;52.236;5.712;2024-03-22T00:16:53;10.60;99.90
18260;DHT22;9256;52.236;5.712;2024-03-22T00:19:20;10.50;99.90
18260;DHT22;9256;52.236;5.712;2024-03-22T00:21:46;10.50;99.90
18260;DHT22;9256;52.236;5.712;2024-03-22T00:24:13;10.60;99.90
18260;DHT22;9256;52.236;5.712;2024-03-22T00:26:39;10.70;99.90
18260;DHT22;9256;52.236;5.712;2024-03-22T00:29:07;10.70;99.90
18260;DHT22;9256;52.236;5.712;2024-03-22T00:31:33;10.60;99.90
18260;DHT22;9256;52.236;5.712;2024-03-22T00:34:00;10.70;99.90
18260;DHT22;9256;52.236;5.712;2024-03-22T00:36:26;10.60;99.90
18260;DHT22;9256;52.236;5.712;2024-03-22T00:38:53;10.60;99.90
18260;DHT22;9256;52.236;5.712;2024-03-22T00:41:19;10.60;99.90
18260;DHT22;9256;52.236;5.712;2024-03-22T00:43:46;10.60;99.90
18260;DHT22;9256;52.236;5.712;2024-03-22T00:46:13;10.60;99.90
18260;DHT22;9256;52.236;5.712;2024-03-22T00:48:40;10.60;99.90
18260;DHT22;9256;52.236;5.712;2024-03-22T00:51:06;10.60;99.90
18260;DHT22;9256;52.236;5.712;2024-03-22T00:53:32;10.60;99.90
18260;DHT22;9256;52.236;5.712;2024-03-22T00:55:58;10.60;99.90
18260;DHT22;9256;52.236;5.712;2024-03-22T00:58:26;10.70;99.90
18260;DHT22;9256;52.236;5.712;2024-03-22T01:00:52;10.60;99.90
18260;DHT22;9256;52.236;5.712;2024-03-22T01:03:21;10.60;99.90
18260;DHT22;9256;52.236;5.712;2024-03-22T01:05:48;10.70;99.90
18260;DHT22;9256;52.236;5.712;2024-03-22T01:08:14;10.60;99.90
18260;DHT22;9256;52.236;5.712;2024-03-22T01:10:41;10.60;99.90
18260;DHT22;9256;52.236;5.712;2024-03-22T01:13:07;10.70;99.90
18260;DHT22;9256;52.236;5.712;2024-03-22T01:15:34;10.70;99.90
18260;DHT22;9256;52.236;5.712;2024-03-22T01:18:01;10.70;99.90
18260;DHT22;9256;52.236;5.712;2024-03-22T01:20:29;10.70;99.90
18260;DHT22;9256;52.236;5.712;2024-03-22T01:22:55;10.80;99.90
18260;DHT22;9256;52.236;5.712;2024-03-22T01:25:22;10.80;99.90
18260;DHT22;9256;52.236;5.712;2024-03-22T01:27:48;10.70;99.90
18260;DHT22;9256;52.236;5.712;2024-03-22T01:30:15;10.80;99.90
18260;DHT22;9256;52.236;5.712;2024-03-22T01:32:41;10.80;99.90
18260;DHT22;9256;52.236;5.712;2024-03-22T01:35:08;10.80;99.90
18260;DHT22;9256;52.236;5.712;2024-03-22T01:37:35;10.80;99.90
18260;DHT22;9256;52.236;5.712;2024-03-22T01:40:03;10.80;99.90
18260;DHT22;9256;52.236;5.712;2024-03-22T01:42:30;10.90;99.90
18260;DHT22;9256;52.236;5.712;2024-03-22T01:44:57;10.90;99.90
18260;DHT22;9256;52.236;5.712;2024-03-22T01:47:23;10.90;99.90
18260;DHT22;9256;52.236;5.712;2024-03-22T01:49:51;10.90;99.90
18260;DHT22;9256;52.236;5.712;2024-03-22T01:52:18;11.00;99.90
18260;DHT22;9256;52.236;5.712;2024-03-22T01:54:46;10.90;99.90
18260;DHT22;9256;52.236;5.712;2024-03-22T01:57:12;10.90;99.90
18260;DHT22;9256;52.236;5.712;2024-03-22T01:59:39;11.00;99.90
18260;DHT22;9256;52.236;5.712;2024-03-22T02:02:05;11.00;99.90
18260;DHT22;9256;52.236;5.712;2024-03-22T02:04:32;11.00;99.90
18260;DHT22;9256;52.236;5.712;2024-03-22T02:06:58;10.90;99.90
18260;DHT22;9256;52.236;5.712;2024-03-22T02:09:25;10.90;99.90
18260;DHT22;9256;52.236;5.712;2024-03-22T02:11:53;10.80;99.90
18260;DHT22;9256;52.236;5.712;2024-03-22T02:14:19;10.90;99.90
18260;DHT22;9256;52.236;5.712;2024-03-22T02:16:46;10.80;99.90
18260;DHT22;9256;52.236;5.712;2024-03-22T02:19:12;10.80;99.90
18260;DHT22;9256;52.236;5.712;2024-03-22T02:21:39;10.80;99.90
18260;DHT22;9256;52.236;5.712;2024-03-22T02:24:07;10.80;99.90
18260;DHT22;9256;52.236;5.712;2024-03-22T02:26:34;10.80;99.90
18260;DHT22;9256;52.236;5.712;2024-03-22T02:28:59;10.80;99.90
18260;DHT22;9256;52.236;5.712;2024-03-22T02:31:26;10.80;99.90
18260;DHT22;9256;52.236;5.712;2024-03-22T02:33:52;10.80;99.90
18260;DHT22;9256;52.236;5.712;2024-03-22T02:36:19;10.80;99.90
18260;DHT22;9256;52.236;5.712;2024-03-22T02:38:45;10.80;99.90
18260;DHT22;9256;52.236;5.712;2024-03-22T02:41:13;10.90;99.90
18260;DHT22;9256;52.236;5.712;2024-03-22T02:43:39;10.90;99.90
18260;DHT22;9256;52.236;5.712;2024-03-22T02:46:06;10.90;99.90
18260;DHT22;9256;52.236;5.712;2024-03-22T02:48:32;11.00;99.90
18260;DHT22;9256;52.236;5.712;2024-03-22T02:50:59;11.00;99.90
18260;DHT22;9256;52.236;5.712;2024-03-22T02:53:25;10.90;99.90
18260;DHT22;9256;52.236;5.712;2024-03-22T02:55:51;10.90;99.90
18260;DHT22;9256;52.236;5.712;2024-03-22T02:58:20;10.90;99.90
18260;DHT22;9256;52.236;5.712;2024-03-22T03:00:47;10.90;99.90
18260;DHT22;9256;52.236;5.712;2024-03-22T03:03:13;10.90;99.90
18260;DHT22;9256;52.236;5.712;2024-03-22T03:05:41;10.90;99.90
18260;DHT22;9256;52.236;5.712;2024-03-22T03:08:07;10.90;99.90
18260;DHT22;9256;52.236;5.712;2024-03-22T03:10:35;10.90;99.90
18260;DHT22;9256;52.236;5.712;2024-03-22T03:13:01;10.90;99.90
18260;DHT22;9256;52.236;5.712;2024-03-22T03:15:29;11.00;99.90
18260;DHT22;9256;52.236;5.712;2024-03-22T03:17:55;10.90;99.90
18260;DHT22;9256;52.236;5.712;2024-03-22T03:20:22;10.90;99.90
18260;DHT22;9256;52.236;5.712;2024-03-22T03:22:48;10.90;99.90
18260;DHT22;9256;52.236;5.712;2024-03-22T03:25:15;10.90;99.90
18260;DHT22;9256;52.236;5.712;2024-03-22T03:27:40;10.90;99.90
18260;DHT22;9256;52.236;5.712;2024-03-22T03:30:08;10.90;99.90
18260;DHT22;9256;52.236;5.712;2024-03-22T03:32:35;10.90;99.90
18260;DHT22;9256;52.236;5.712;2024-03-22T03:35:02;10.90;99.90
18260;DHT22;9256;52.236;5.712;2024-03-22T03:37:28;10.90;99.90
18260;DHT22;9256;52.236;5.712;2024-03-22T03:39:55;10.90;99.90
18260;DHT22;9256;52.236;5.712;2024-03-22T03:42:21;10.90;99.90
18260;DHT22;9256;52.236;5.712;2024-03-22T03:44:47;10.80;99.90
18260;DHT22;9256;52.236;5.712;2024-03-22T03:47:13;10.90;99.90
18260;DHT22;9256;52.236;5.712;2024-03-22T03:49:42;10.80;99.90
18260;DHT22;9256;52.236;5.712;2024-03-22T03:52:08;10.80;99.90
18260;DHT22;9256;52.236;5.712;2024-03-22T03:54:35;10.80;99.90
18260;DHT22;9256;52.236;5.712;2024-03-22T03:57:00;10.70;99.90
18260;DHT22;9256;52.236;5.712;2024-03-22T03:59:27;10.80;99.90
18260;DHT22;9256;52.236;5.712;2024-03-22T04:01:53;10.70;99.90
18260;DHT22;9256;52.236;5.712;2024-03-22T04:04:20;10.70;99.90
18260;DHT22;9256;52.236;5.712;2024-03-22T04:06:47;10.60;99.90
18260;DHT22;9256;52.236;5.712;2024-03-22T04:09:14;10.60;99.90
18260;DHT22;9256;52.236;5.712;2024-03-22T04:11:40;10.60;99.90
18260;DHT22;9256;52.236;5.712;2024-03-22T04:14:07;10.60;99.90
18260;DHT22;9256;52.236;5.712;2024-03-22T04:16:33;10.50;99.90
18260;DHT22;9256;52.236;5.712;2024-03-22T04:19:00;10.50;99.90
18260;DHT22;9256;52.236;5.712;2024-03-22T04:21:25;10.40;99.90
18260;DHT22;9256;52.236;5.712;2024-03-22T04:23:54;10.50;99.90
18260;DHT22;9256;52.236;5.712;2024-03-22T04:26:19;10.50;99.90
18260;DHT22;9256;52.236;5.712;2024-03-22T04:28:49;10.50;99.90
18260;DHT22;9256;52.236;5.712;2024-03-22T04:31:14;10.40;99.90
18260;DHT22;9256;52.236;5.712;2024-03-22T04:33:42;10.40;99.90
18260;DHT22;9256;52.236;5.712;2024-03-22T04:36:08;10.50;99.90
18260;DHT22;9256;52.236;5.712;2024-03-22T04:38:36;10.40;99.90
18260;DHT22;9256;52.236;5.712;2024-03-22T04:41:04;10.40;99.90
18260;DHT22;9256;52.236;5.712;2024-03-22T04:43:31;10.40;99.90
18260;DHT22;9256;52.236;5.712;2024-03-22T04:45:58;10.40;99.90
18260;DHT22;9256;52.236;5.712;2024-03-22T04:48:24;10.40;99.90
18260;DHT22;9256;52.236;5.712;2024-03-22T04:50:52;10.30;99.90
18260;DHT22;9256;52.236;5.712;2024-03-22T04:53:18;10.40;99.90
18260;DHT22;9256;52.236;5.712;2024-03-22T04:55:47;10.30;99.90
18260;DHT22;9256;52.236;5.712;2024-03-22T04:58:17;10.30;99.90
18260;DHT22;9256;52.236;5.712;2024-03-22T05:00:43;10.30;99.90
18260;DHT22;9256;52.236;5.712;2024-03-22T05:03:10;10.20;99.90
18260;DHT22;9256;52.236;5.712;2024-03-22T05:05:37;10.20;99.90
18260;DHT22;9256;52.236;5.712;2024-03-22T05:08:05;10.30;99.90
18260;DHT22;9256;52.236;5.712;2024-03-22T05:10:31;10.20;99.90
18260;DHT22;9256;52.236;5.712;2024-03-22T05:12:58;10.20;99.90
18260;DHT22;9256;52.236;5.712;2024-03-22T05:15:26;10.20;99.90
18260;DHT22;9256;52.236;5.712;2024-03-22T05:17:58;10.20;99.90
18260;DHT22;9256;52.236;5.712;2024-03-22T05:20:24;10.20;99.90
18260;DHT22;9256;52.236;5.712;2024-03-22T05:22:50;10.20;99.90
18260;DHT22;9256;52.236;5.712;2024-03-22T05:25:17;10.20;99.90
18260;DHT22;9256;52.236;5.712;2024-03-22T05:27:44;10.10;99.90
18260;DHT22;9256;52.236;5.712;2024-03-22T05:30:11;10.10;99.90
18260;DHT22;9256;52.236;5.712;2024-03-22T05:32:40;10.10;99.90
18260;DHT22;9256;52.236;5.712;2024-03-22T05:35:07;10.10;99.90
18260;DHT22;9256;52.236;5.712;2024-03-22T05:37:34;10.10;99.90
18260;DHT22;9256;52.236;5.712;2024-03-22T05:40:00;10.10;99.90
18260;DHT22;9256;52.236;5.712;2024-03-22T05:42:27;10.10;99.90
18260;DHT22;9256;52.236;5.712;2024-03-22T05:44:54;10.10;99.90
18260;DHT22;9256;52.236;5.712;2024-03-22T05:47:21;10.10;99.90
18260;DHT22;9256;52.236;5.712;2024-03-22T05:49:49;10.10;99.90
18260;DHT22;9256;52.236;5.712;2024-03-22T05:52:16;10.10;99.90
18260;DHT22;9256;52.236;5.712;2024-03-22T05:54:42;10.10;99.90
18260;DHT22;9256;52.236;5.712;2024-03-22T05:57:09;10.10;99.90
18260;DHT22;9256;52.236;5.712;2024-03-22T05:59:35;10.10;99.90
18260;DHT22;9256;52.236;5.712;2024-03-22T06:02:02;10.10;99.90
18260;DHT22;9256;52.236;5.712;2024-03-22T06:04:28;10.10;99.90
18260;DHT22;9256;52.236;5.712;2024-03-22T06:06:56;10.10;99.90
18260;DHT22;9256;52.236;5.712;2024-03-22T06:09:25;10.10;99.90
18260;DHT22;9256;52.236;5.712;2024-03-22T06:12:00;10.00;99.90
18260;DHT22;9256;52.236;5.712;2024-03-22T06:14:27;10.00;99.90
18260;DHT22;9256;52.236;5.712;2024-03-22T06:16:54;10.00;99.90
18260;DHT22;9256;52.236;5.712;2024-03-22T06:19:20;10.00;99.90
18260;DHT22;9256;52.236;5.712;2024-03-22T06:21:47;10.00;99.90
18260;DHT22;9256;52.236;5.712;2024-03-22T06:24:14;10.00;99.90
18260;DHT22;9256;52.236;5.712;2024-03-22T06:26:41;10.00;99.90
18260;DHT22;9256;52.236;5.712;2024-03-22T06:29:07;10.10;99.90
18260;DHT22;9256;52.236;5.712;2024-03-22T06:31:34;10.20;99.90
18260;DHT22;9256;52.236;5.712;2024-03-22T06:34:00;10.30;99.90
18260;DHT22;9256;52.236;5.712;2024-03-22T06:36:28;10.30;99.90
18260;DHT22;9256;52.236;5.712;2024-03-22T06:38:54;10.40;99.90
18260;DHT22;9256;52.236;5.712;2024-03-22T06:41:23;10.40;99.90
18260;DHT22;9256;52.236;5.712;2024-03-22T06:43:49;10.50;99.90
18260;DHT22;9256;52.236;5.712;2024-03-22T06:46:16;10.40;99.90
18260;DHT22;9256;52.236;5.712;2024-03-22T06:48:42;10.40;99.90
18260;DHT22;9256;52.236;5.712;2024-03-22T06:51:09;10.40;99.90
18260;DHT22;9256;52.236;5.712;2024-03-22T06:53:35;10.50;99.90
18260;DHT22;9256;52.236;5.712;2024-03-22T06:56:02;10.50;99.90
18260;DHT22;9256;52.236;5.712;2024-03-22T06:58:29;10.50;99.90
18260;DHT22;9256;52.236;5.712;2024-03-22T07:00:56;10.50;99.90
18260;DHT22;9256;52.236;5.712;2024-03-22T07:03:22;10.50;99.90
18260;DHT22;9256;52.236;5.712;2024-03-22T07:05:49;10.60;99.90
18260;DHT22;9256;52.236;5.712;2024-03-22T07:08:15;10.50;99.90
18260;DHT22;9256;52.236;5.712;2024-03-22T07:10:42;10.60;99.90
18260;DHT22;9256;52.236;5.712;2024-03-22T07:13:07;10.60;99.90
18260;DHT22;9256;52.236;5.712;2024-03-22T07:15:36;10.70;99.90
18260;DHT22;9256;52.236;5.712;2024-03-22T07:18:02;10.60;99.90
18260;DHT22;9256;52.236;5.712;2024-03-22T07:20:30;10.70;99.90
18260;DHT22;9256;52.236;5.712;2024-03-22T07:22:55;10.70;99.90
18260;DHT22;9256;52.236;5.712;2024-03-22T07:25:22;10.80;99.90
18260;DHT22;9256;52.236;5.712;2024-03-22T07:27:49;10.90;99.90
18260;DHT22;9256;52.236;5.712;2024-03-22T07:30:15;10.90;99.90
18260;DHT22;9256;52.236;5.712;2024-03-22T07:32:43;10.90;99.90
18260;DHT22;9256;52.236;5.712;2024-03-22T07:35:10;10.80;99.90
18260;DHT22;9256;52.236;5.712;2024-03-22T07:37:35;10.90;99.90
18260;DHT22;9256;52.236;5.712;2024-03-22T07:40:04;10.90;99.90
18260;DHT22;9256;52.236;5.712;2024-03-22T07:42:31;10.80;99.90
18260;DHT22;9256;52.236;5.712;2024-03-22T07:44:58;10.80;99.90
18260;DHT22;9256;52.236;5.712;2024-03-22T07:47:24;10.70;99.90
18260;DHT22;9256;52.236;5.712;2024-03-22T07:49:53;10.70;99.90
18260;DHT22;9256;52.236;5.712;2024-03-22T07:52:20;10.70;99.90
18260;DHT22;9256;52.236;5.712;2024-03-22T07:54:46;10.70;99.90
18260;DHT22;9256;52.236;5.712;2024-03-22T07:57:15;10.70;99.90
18260;DHT22;9256;52.236;5.712;2024-03-22T07:59:42;10.70;99.90
18260;DHT22;9256;52.236;5.712;2024-03-22T08:02:10;10.80;99.90
18260;DHT22;9256;52.236;5.712;2024-03-22T08:04:37;10.70;99.90
18260;DHT22;9256;52.236;5.712;2024-03-22T08:07:04;10.70;99.90
18260;DHT22;9256;52.236;5.712;2024-03-22T08:09:31;10.80;99.90
18260;DHT22;9256;52.236;5.712;2024-03-22T08:12:00;10.70;99.90
18260;DHT22;9256;52.236;5.712;2024-03-22T08:14:27;10.70;99.90
18260;DHT22;9256;52.236;5.712;2024-03-22T08:16:53;10.70;99.90
18260;DHT22;9256;52.236;5.712;2024-03-22T08:19:19;10.70;99.90
18260;DHT22;9256;52.236;5.712;2024-03-22T08:21:45;10.70;99.90
18260;DHT22;9256;52.236;5.712;2024-03-22T08:24:14;10.70;99.90
18260;DHT22;9256;52.236;5.712;2024-03-22T08:26:40;10.70;99.90
18260;DHT22;9256;52.236;5.712;2024-03-22T08:29:11;10.60;99.90
18260;DHT22;9256;52.236;5.712;2024-03-22T08:31:37;10.70;99.90
18260;DHT22;9256;52.236;5.712;2024-03-22T08:34:04;10.70;99.90
18260;DHT22;9256;52.236;5.712;2024-03-22T08:36:31;10.70;99.90
18260;DHT22;9256;52.236;5.712;2024-03-22T08:38:58;10.70;99.90
18260;DHT22;9256;52.236;5.712;2024-03-22T08:41:25;10.70;99.90
18260;DHT22;9256;52.236;5.712;2024-03-22T08:43:52;10.70;99.90
18260;DHT22;9256;52.236;5.712;2024-03-22T08:46:18;10.70;99.90
18260;DHT22;9256;52.236;5.712;2024-03-22T08:48:46;10.60;99.90
18260;DHT22;9256;52.236;5.712;2024-03-22T08:51:13;10.70;99.90
18260;DHT22;9256;52.236;5.712;2024-03-22T08:53:40;10.60;99.90
18260;DHT22;9256;52.236;5.712;2024-03-22T08:56:06;10.60;99.90
18260;DHT22;9256;52.236;5.712;2024-03-22T08:58:34;10.70;99.90
18260;DHT22;9256;52.236;5.712;2024-03-22T09:01:00;10.70;99.90
18260;DHT22;9256;52.236;5.712;2024-03-22T09:03:27;10.80;99.90
18260;DHT22;9256;52.236;5.712;2024-03-22T09:05:56;10.60;99.90
18260;DHT22;9256;52.236;5.712;2024-03-22T09:08:23;10.60;99.90
18260;DHT22;9256;52.236;5.712;2024-03-22T09:10:49;10.50;99.90
18260;DHT22;9256;52.236;5.712;2024-03-22T09:13:16;10.50;99.90
18260;DHT22;9256;52.236;5.712;2024-03-22T09:15:44;10.50;99.90
18260;DHT22;9256;52.236;5.712;2024-03-22T09:18:10;10.50;99.90
18260;DHT22;9256;52.236;5.712;2024-03-22T09:20:37;10.40;99.90
18260;DHT22;9256;52.236;5.712;2024-03-22T09:23:04;10.40;99.90
18260;DHT22;9256;52.236;5.712;2024-03-22T09:25:30;10.40;99.90
18260;DHT22;9256;52.236;5.712;2024-03-22T09:27:57;10.40;99.90
18260;DHT22;9256;52.236;5.712;2024-03-22T09:30:23;10.40;99.90
18260;DHT22;9256;52.236;5.712;2024-03-22T09:32:51;10.40;99.90
18260;DHT22;9256;52.236;5.712;2024-03-22T09:35:17;10.40;99.90
18260;DHT22;9256;52.236;5.712;2024-03-22T09:37:44;10.40;99.90
18260;DHT22;9256;52.236;5.712;2024-03-22T09:40:11;10.50;99.90
18260;DHT22;9256;52.236;5.712;2024-03-22T09:42:41;10.40;99.90
18260;DHT22;9256;52.236;5.712;2024-03-22T09:45:10;10.40;99.90
18260;DHT22;9256;52.236;5.712;2024-03-22T09:47:38;10.30;99.90
18260;DHT22;9256;52.236;5.712;2024-03-22T09:50:08;10.30;99.90
18260;DHT22;9256;52.236;5.712;2024-03-22T09:52:37;10.30;99.90
18260;DHT22;9256;52.236;5.712;2024-03-22T09:55:05;10.20;99.90
18260;DHT22;9256;52.236;5.712;2024-03-22T09:57:34;10.20;99.90
18260;DHT22;9256;52.236;5.712;2024-03-22T10:00:02;10.30;99.90
18260;DHT22;9256;52.236;5.712;2024-03-22T10:02:31;10.30;99.90
18260;DHT22;9256;52.236;5.712;2024-03-22T10:04:58;10.30;99.90
18260;DHT22;9256;52.236;5.712;2024-03-22T10:07:26;10.30;99.90
18260;DHT22;9256;52.236;5.712;2024-03-22T10:09:52;10.30;99.90
18260;DHT22;9256;52.236;5.712;2024-03-22T10:12:19;10.40;99.90
18260;DHT22;9256;52.236;5.712;2024-03-22T10:14:46;10.40;99.90
18260;DHT22;9256;52.236;5.712;2024-03-22T10:17:13;10.30;99.90
18260;DHT22;9256;52.236;5.712;2024-03-22T10:19:41;10.30;99.90
18260;DHT22;9256;52.236;5.712;2024-03-22T10:22:08;10.40;99.90
18260;DHT22;9256;52.236;5.712;2024-03-22T10:24:35;10.40;99.90
18260;DHT22;9256;52.236;5.712;2024-03-22T10:27:02;10.40;99.90
18260;DHT22;9256;52.236;5.712;2024-03-22T10:29:28;10.50;99.90
18260;DHT22;9256;52.236;5.712;2024-03-22T10:31:56;10.50;99.90
18260;DHT22;9256;52.236;5.712;2024-03-22T10:34:22;10.60;99.90
18260;DHT22;9256;52.236;5.712;2024-03-22T10:36:50;10.60;99.90
18260;DHT22;9256;52.236;5.712;2024-03-22T10:39:17;10.50;99.90
18260;DHT22;9256;52.236;5.712;2024-03-22T10:41:47;10.40;99.90
18260;DHT22;9256;52.236;5.712;2024-03-22T10:44:14;10.50;99.90
18260;DHT22;9256;52.236;5.712;2024-03-22T10:46:44;10.60;99.90
18260;DHT22;9256;52.236;5.712;2024-03-22T10:49:15;10.60;99.90
18260;DHT22;9256;52.236;5.712;2024-03-22T10:51:43;10.60;99.90
18260;DHT22;9256;52.236;5.712;2024-03-22T10:54:12;10.70;99.90
18260;DHT22;9256;52.236;5.712;2024-03-22T10:56:40;10.60;99.90
18260;DHT22;9256;52.236;5.712;2024-03-22T10:59:08;10.60;99.90
18260;DHT22;9256;52.236;5.712;2024-03-22T11:01:39;10.60;99.90
18260;DHT22;9256;52.236;5.712;2024-03-22T11:04:10;10.60;99.90
18260;DHT22;9256;52.236;5.712;2024-03-22T11:06:37;10.60;99.90
18260;DHT22;9256;52.236;5.712;2024-03-22T11:09:03;10.60;99.90
18260;DHT22;9256;52.236;5.712;2024-03-22T11:11:30;10.60;99.90
18260;DHT22;9256;52.236;5.712;2024-03-22T11:14:02;10.70;99.90
18260;DHT22;9256;52.236;5.712;2024-03-22T11:16:31;10.60;99.90
18260;DHT22;9256;52.236;5.712;2024-03-22T11:19:00;10.60;99.90
18260;DHT22;9256;52.236;5.712;2024-03-22T11:21:27;10.70;99.90
18260;DHT22;9256;52.236;5.712;2024-03-22T11:23:53;10.60;99.90
18260;DHT22;9256;52.236;5.712;2024-03-22T11:26:20;10.60;99.90
18260;DHT22;9256;52.236;5.712;2024-03-22T11:28:46;10.70;99.90
18260;DHT22;9256;52.236;5.712;2024-03-22T11:31:13;10.60;99.90
18260;DHT22;9256;52.236;5.712;2024-03-22T11:33:41;10.80;99.90
18260;DHT22;9256;52.236;5.712;2024-03-22T11:36:09;10.70;99.90
18260;DHT22;9256;52.236;5.712;2024-03-22T11:38:35;10.60;99.90
18260;DHT22;9256;52.236;5.712;2024-03-22T11:41:02;10.70;99.90
18260;DHT22;9256;52.236;5.712;2024-03-22T11:43:29;10.80;99.90
18260;DHT22;9256;52.236;5.712;2024-03-22T11:45:56;10.70;99.90
18260;DHT22;9256;52.236;5.712;2024-03-22T11:48:22;10.80;99.90
18260;DHT22;9256;52.236;5.712;2024-03-22T11:50:51;10.80;99.90
18260;DHT22;9256;52.236;5.712;2024-03-22T11:53:17;10.70;99.90
18260;DHT22;9256;52.236;5.712;2024-03-22T11:55:44;10.70;99.90
18260;DHT22;9256;52.236;5.712;2024-03-22T11:58:10;10.80;99.90
18260;DHT22;9256;52.236;5.712;2024-03-22T12:00:38;10.80;99.90
18260;DHT22;9256;52.236;5.712;2024-03-22T12:03:04;10.90;99.90
18260;DHT22;9256;52.236;5.712;2024-03-22T12:05:36;11.00;99.90
18260;DHT22;9256;52.236;5.712;2024-03-22T12:08:04;10.90;99.90
18260;DHT22;9256;52.236;5.712;2024-03-22T12:10:31;11.00;99.90
18260;DHT22;9256;52.236;5.712;2024-03-22T12:12:57;10.90;99.90
18260;DHT22;9256;52.236;5.712;2024-03-22T12:15:24;10.90;99.90
18260;DHT22;9256;52.236;5.712;2024-03-22T12:17:50;10.80;99.90
18260;DHT22;9256;52.236;5.712;2024-03-22T12:20:16;11.00;99.90
18260;DHT22;9256;52.236;5.712;2024-03-22T12:22:42;11.00;99.90
18260;DHT22;9256;52.236;5.712;2024-03-22T12:25:11;10.90;99.90
18260;DHT22;9256;52.236;5.712;2024-03-22T12:27:37;10.90;99.90
18260;DHT22;9256;52.236;5.712;2024-03-22T12:30:05;10.70;99.90
18260;DHT22;9256;52.236;5.712;2024-03-22T12:32:32;10.60;99.90
18260;DHT22;9256;52.236;5.712;2024-03-22T12:34:59;10.60;99.90
18260;DHT22;9256;52.236;5.712;2024-03-22T12:37:25;10.50;99.90
18260;DHT22;9256;52.236;5.712;2024-03-22T12:39:51;10.70;99.90
18260;DHT22;9256;52.236;5.712;2024-03-22T12:42:20;10.70;99.90
18260;DHT22;9256;52.236;5.712;2024-03-22T12:44:48;10.60;99.90
18260;DHT22;9256;52.236;5.712;2024-03-22T12:47:14;10.70;99.90
18260;DHT22;9256;52.236;5.712;2024-03-22T12:49:41;10.70;99.90
18260;DHT22;9256;52.236;5.712;2024-03-22T12:52:07;10.70;99.90
18260;DHT22;9256;52.236;5.712;2024-03-22T12:54:34;10.60;99.90
18260;DHT22;9256;52.236;5.712;2024-03-22T12:57:00;10.70;99.90
18260;DHT22;9256;52.236;5.712;2024-03-22T12:59:28;10.70;99.90
18260;DHT22;9256;52.236;5.712;2024-03-22T13:01:54;10.70;99.90
18260;DHT22;9256;52.236;5.712;2024-03-22T13:04:21;10.70;99.90
18260;DHT22;9256;52.236;5.712;2024-03-22T13:06:46;10.50;99.90
18260;DHT22;9256;52.236;5.712;2024-03-22T13:09:13;10.50;99.90
18260;DHT22;9256;52.236;5.712;2024-03-22T13:11:39;10.50;99.90
18260;DHT22;9256;52.236;5.712;2024-03-22T13:14:07;10.40;99.90
18260;DHT22;9256;52.236;5.712;2024-03-22T13:16:34;10.40;99.90
18260;DHT22;9256;52.236;5.712;2024-03-22T13:19:01;10.30;99.90
18260;DHT22;9256;52.236;5.712;2024-03-22T13:21:27;10.20;99.90
18260;DHT22;9256;52.236;5.712;2024-03-22T13:23:54;10.30;99.90
18260;DHT22;9256;52.236;5.712;2024-03-22T13:26:20;10.50;99.90
18260;DHT22;9256;52.236;5.712;2024-03-22T13:28:47;10.60;99.90
18260;DHT22;9256;52.236;5.712;2024-03-22T13:31:13;10.40;99.90
18260;DHT22;9256;52.236;5.712;2024-03-22T13:33:42;10.60;99.90
18260;DHT22;9256;52.236;5.712;2024-03-22T13:36:08;10.70;99.90
18260;DHT22;9256;52.236;5.712;2024-03-22T13:38:35;10.50;99.90
18260;DHT22;9256;52.236;5.712;2024-03-22T13:41:03;10.40;99.90
18260;DHT22;9256;52.236;5.712;2024-03-22T13:43:31;10.40;99.90
18260;DHT22;9256;52.236;5.712;2024-03-22T13:45:58;10.60;99.90
18260;DHT22;9256;52.236;5.712;2024-03-22T13:48:26;10.50;99.90
18260;DHT22;9256;52.236;5.712;2024-03-22T13:50:54;10.50;99.90
18260;DHT22;9256;52.236;5.712;2024-03-22T13:53:21;10.40;99.90
18260;DHT22;9256;52.236;5.712;2024-03-22T13:55:47;10.50;99.90
18260;DHT22;9256;52.236;5.712;2024-03-22T13:58:14;10.40;99.90
18260;DHT22;9256;52.236;5.712;2024-03-22T14:00:42;10.50;99.90
18260;DHT22;9256;52.236;5.712;2024-03-22T14:03:09;10.40;99.90
18260;DHT22;9256;52.236;5.712;2024-03-22T14:05:35;10.40;99.90
18260;DHT22;9256;52.236;5.712;2024-03-22T14:08:05;10.40;99.90
18260;DHT22;9256;52.236;5.712;2024-03-22T14:10:31;10.30;99.90
18260;DHT22;9256;52.236;5.712;2024-03-22T14:12:58;10.20;99.90
18260;DHT22;9256;52.236;5.712;2024-03-22T14:15:24;10.30;99.90
18260;DHT22;9256;52.236;5.712;2024-03-22T14:17:52;10.40;99.90
18260;DHT22;9256;52.236;5.712;2024-03-22T14:20:19;10.30;99.90
18260;DHT22;9256;52.236;5.712;2024-03-22T14:22:46;10.40;99.90
18260;DHT22;9256;52.236;5.712;2024-03-22T14:25:14;10.50;99.90
18260;DHT22;9256;52.236;5.712;2024-03-22T14:27:41;10.50;99.90
18260;DHT22;9256;52.236;5.712;2024-03-22T14:30:11;10.60;99.90
18260;DHT22;9256;52.236;5.712;2024-03-22T14:32:38;10.80;99.90
18260;DHT22;9256;52.236;5.712;2024-03-22T14:35:05;10.90;99.90
18260;DHT22;9256;52.236;5.712;2024-03-22T14:37:32;10.90;99.90
18260;DHT22;9256;52.236;5.712;2024-03-22T14:39:58;10.90;99.90
18260;DHT22;9256;52.236;5.712;2024-03-22T14:42:26;11.10;99.90
18260;DHT22;9256;52.236;5.712;2024-03-22T14:44:52;11.10;99.90
18260;DHT22;9256;52.236;5.712;2024-03-22T14:47:21;10.90;99.90
18260;DHT22;9256;52.236;5.712;2024-03-22T14:49:49;10.90;99.90
18260;DHT22;9256;52.236;5.712;2024-03-22T14:52:16;11.00;99.90
18260;DHT22;9256;52.236;5.712;2024-03-22T14:54:42;11.00;99.90
18260;DHT22;9256;52.236;5.712;2024-03-22T14:57:09;11.00;99.90
18260;DHT22;9256;52.236;5.712;2024-03-22T14:59:36;10.80;99.90
18260;DHT22;9256;52.236;5.712;2024-03-22T15:02:03;10.80;99.90
18260;DHT22;9256;52.236;5.712;2024-03-22T15:04:29;10.70;99.90
18260;DHT22;9256;52.236;5.712;2024-03-22T15:06:58;10.80;99.90
18260;DHT22;9256;52.236;5.712;2024-03-22T15:09:24;10.80;99.90
18260;DHT22;9256;52.236;5.712;2024-03-22T15:11:50;10.70;99.90
18260;DHT22;9256;52.236;5.712;2024-03-22T15:14:16;10.70;99.90
18260;DHT22;9256;52.236;5.712;2024-03-22T15:16:45;10.50;99.90
18260;DHT22;9256;52.236;5.712;2024-03-22T15:19:10;10.60;99.90
18260;DHT22;9256;52.236;5.712;2024-03-22T15:21:37;10.70;99.90
18260;DHT22;9256;52.236;5.712;2024-03-22T15:24:04;10.50;99.90
18260;DHT22;9256;52.236;5.712;2024-03-22T15:26:33;10.60;99.90
18260;DHT22;9256;52.236;5.712;2024-03-22T15:28:59;10.60;99.90
18260;DHT22;9256;52.236;5.712;2024-03-22T15:31:26;10.50;99.90
18260;DHT22;9256;52.236;5.712;2024-03-22T15:33:54;10.40;99.90
18260;DHT22;9256;52.236;5.712;2024-03-22T15:36:20;10.40;99.90
18260;DHT22;9256;52.236;5.712;2024-03-22T15:38:46;10.40;99.90
18260;DHT22;9256;52.236;5.712;2024-03-22T15:41:13;10.30;99.90
18260;DHT22;9256;52.236;5.712;2024-03-22T15:43:43;10.30;99.90